sensor_id;sensor_type;location;lat;lon;timestamp;temperature;humidity
65584;DHT22;62116;43.582;1.470;2023-04-03T00:01:41;11.34;80.11
65584;DHT22;62116;43.582;1.470;2023-04-03T00:04:07;11.31;80.22
65584;DHT22;62116;43.582;1.470;2023-04-03T00:06:32;11.31;80.29
65584;DHT22;62116;43.582;1.470;2023-04-03T00:08:58;11.30;80.44
65584;DHT22;62116;43.582;1.470;2023-04-03T00:11:27;11.34;80.06
65584;DHT22;62116;43.582;1.470;2023-04-03T00:13:52;11.33;80.18
65584;DHT22;62116;43.582;1.470;2023-04-03T00:16:18;11.30;80.41
65584;DHT22;62116;43.582;1.470;2023-04-03T00:18:43;11.30;80.64
65584;DHT22;62116;43.582;1.470;2023-04-03T00:21:10;11.31;80.45
65584;DHT22;62116;43.582;1.470;2023-04-03T00:23:37;11.34;79.82
65584;DHT22;62116;43.582;1.470;2023-04-03T00:26:02;11.30;79.93
65584;DHT22;62116;43.582;1.470;2023-04-03T00:28:28;11.30;80.05
65584;DHT22;62116;43.582;1.470;2023-04-03T00:30:53;11.31;79.92
65584;DHT22;62116;43.582;1.470;2023-04-03T00:33:19;11.34;79.86
65584;DHT22;62116;43.582;1.470;2023-04-03T00:35:47;11.38;79.67
65584;DHT22;62116;43.582;1.470;2023-04-03T00:38:13;11.34;79.43
65584;DHT22;62116;43.582;1.470;2023-04-03T00:40:44;11.28;79.30
65584;DHT22;62116;43.582;1.470;2023-04-03T00:43:21;11.27;79.42
65584;DHT22;62116;43.582;1.470;2023-04-03T00:45:49;11.23;79.49
65584;DHT22;62116;43.582;1.470;2023-04-03T00:48:20;11.24;79.64
65584;DHT22;62116;43.582;1.470;2023-04-03T00:50:48;11.23;79.47
65584;DHT22;62116;43.582;1.470;2023-04-03T00:53:19;11.24;79.19
65584;DHT22;62116;43.582;1.470;2023-04-03T00:55:47;11.26;79.41
65584;DHT22;62116;43.582;1.470;2023-04-03T00:58:14;11.21;79.03
65584;DHT22;62116;43.582;1.470;2023-04-03T01:00:44;11.20;78.98
65584;DHT22;62116;43.582;1.470;2023-04-03T01:03:11;11.20;79.20
65584;DHT22;62116;43.582;1.470;2023-04-03T01:05:37;11.23;79.28
65584;DHT22;62116;43.582;1.470;2023-04-03T01:08:03;11.20;79.25
65584;DHT22;62116;43.582;1.470;2023-04-03T01:10:29;11.19;78.77
65584;DHT22;62116;43.582;1.470;2023-04-03T01:12:55;11.20;78.87
65584;DHT22;62116;43.582;1.470;2023-04-03T01:15:25;11.26;78.82
65584;DHT22;62116;43.582;1.470;2023-04-03T01:17:52;11.27;78.57
65584;DHT22;62116;43.582;1.470;2023-04-03T01:23:19;11.20;78.52
65584;DHT22;62116;43.582;1.470;2023-04-03T01:25:49;11.19;78.57
65584;DHT22;62116;43.582;1.470;2023-04-03T01:28:21;11.19;78.53
65584;DHT22;62116;43.582;1.470;2023-04-03T01:33:23;11.17;78.62
65584;DHT22;62116;43.582;1.470;2023-04-03T01:35:48;11.13;78.59
65584;DHT22;62116;43.582;1.470;2023-04-03T01:38:14;11.16;78.87
65584;DHT22;62116;43.582;1.470;2023-04-03T01:40:40;11.13;79.12
65584;DHT22;62116;43.582;1.470;2023-04-03T01:43:05;11.11;78.90
65584;DHT22;62116;43.582;1.470;2023-04-03T01:45:30;11.09;79.03
65584;DHT22;62116;43.582;1.470;2023-04-03T01:47:56;11.11;79.17
65584;DHT22;62116;43.582;1.470;2023-04-03T01:50:21;11.10;79.52
65584;DHT22;62116;43.582;1.470;2023-04-03T01:52:47;11.07;79.56
65584;DHT22;62116;43.582;1.470;2023-04-03T01:55:12;11.09;79.61
65584;DHT22;62116;43.582;1.470;2023-04-03T01:57:37;11.09;80.04
65584;DHT22;62116;43.582;1.470;2023-04-03T02:00:03;11.04;80.31
65584;DHT22;62116;43.582;1.470;2023-04-03T02:02:29;11.03;81.00
65584;DHT22;62116;43.582;1.470;2023-04-03T02:04:54;11.04;80.74
65584;DHT22;62116;43.582;1.470;2023-04-03T02:07:20;11.03;80.83
65584;DHT22;62116;43.582;1.470;2023-04-03T02:09:45;10.99;81.04
65584;DHT22;62116;43.582;1.470;2023-04-03T02:12:10;10.93;81.29
65584;DHT22;62116;43.582;1.470;2023-04-03T02:14:36;10.93;81.63
65584;DHT22;62116;43.582;1.470;2023-04-03T02:17:01;10.93;81.61
65584;DHT22;62116;43.582;1.470;2023-04-03T02:19:30;10.92;81.76
65584;DHT22;62116;43.582;1.470;2023-04-03T02:21:56;10.89;81.64
65584;DHT22;62116;43.582;1.470;2023-04-03T02:24:21;10.93;81.76
65584;DHT22;62116;43.582;1.470;2023-04-03T02:26:47;10.87;81.53
65584;DHT22;62116;43.582;1.470;2023-04-03T02:29:12;10.87;81.60
65584;DHT22;62116;43.582;1.470;2023-04-03T02:31:37;10.84;81.84
65584;DHT22;62116;43.582;1.470;2023-04-03T02:34:03;10.84;81.91
65584;DHT22;62116;43.582;1.470;2023-04-03T02:36:28;10.86;82.16
65584;DHT22;62116;43.582;1.470;2023-04-03T02:38:53;10.90;81.79
65584;DHT22;62116;43.582;1.470;2023-04-03T02:41:19;10.93;81.75
65584;DHT22;62116;43.582;1.470;2023-04-03T02:43:46;10.89;81.70
65584;DHT22;62116;43.582;1.470;2023-04-03T02:46:11;10.87;81.79
65584;DHT22;62116;43.582;1.470;2023-04-03T02:48:37;10.87;81.90
65584;DHT22;62116;43.582;1.470;2023-04-03T02:51:02;10.86;81.55
65584;DHT22;62116;43.582;1.470;2023-04-03T02:53:27;10.86;81.83
65584;DHT22;62116;43.582;1.470;2023-04-03T02:55:53;10.87;81.82
65584;DHT22;62116;43.582;1.470;2023-04-03T02:58:18;10.80;82.19
65584;DHT22;62116;43.582;1.470;2023-04-03T03:00:44;10.84;82.08
65584;DHT22;62116;43.582;1.470;2023-04-03T03:03:09;10.80;81.89
65584;DHT22;62116;43.582;1.470;2023-04-03T03:05:34;10.79;81.82
65584;DHT22;62116;43.582;1.470;2023-04-03T03:08:01;10.83;81.84
65584;DHT22;62116;43.582;1.470;2023-04-03T03:10:26;10.86;81.63
65584;DHT22;62116;43.582;1.470;2023-04-03T03:12:52;10.79;81.90
65584;DHT22;62116;43.582;1.470;2023-04-03T03:15:17;10.83;81.74
65584;DHT22;62116;43.582;1.470;2023-04-03T03:17:44;10.84;81.77
65584;DHT22;62116;43.582;1.470;2023-04-03T03:20:10;10.83;81.99
65584;DHT22;62116;43.582;1.470;2023-04-03T03:22:36;10.79;81.97
65584;DHT22;62116;43.582;1.470;2023-04-03T03:25:02;10.80;81.73
65584;DHT22;62116;43.582;1.470;2023-04-03T03:27:28;10.79;82.09
65584;DHT22;62116;43.582;1.470;2023-04-03T03:29:53;10.80;81.98
65584;DHT22;62116;43.582;1.470;2023-04-03T03:32:19;10.79;81.86
65584;DHT22;62116;43.582;1.470;2023-04-03T03:34:44;10.77;82.11
65584;DHT22;62116;43.582;1.470;2023-04-03T03:37:10;10.81;81.94
65584;DHT22;62116;43.582;1.470;2023-04-03T03:39:35;10.75;82.16
65584;DHT22;62116;43.582;1.470;2023-04-03T03:42:01;10.76;82.15
65584;DHT22;62116;43.582;1.470;2023-04-03T03:44:26;10.75;82.33
65584;DHT22;62116;43.582;1.470;2023-04-03T03:46:54;10.75;82.08
65584;DHT22;62116;43.582;1.470;2023-04-03T03:49:19;10.76;82.20
65584;DHT22;62116;43.582;1.470;2023-04-03T03:51:45;10.73;82.10
65584;DHT22;62116;43.582;1.470;2023-04-03T03:54:10;10.75;82.21
65584;DHT22;62116;43.582;1.470;2023-04-03T03:56:36;10.76;82.31
65584;DHT22;62116;43.582;1.470;2023-04-03T03:59:01;10.76;82.22
65584;DHT22;62116;43.582;1.470;2023-04-03T04:01:27;10.76;81.94
65584;DHT22;62116;43.582;1.470;2023-04-03T04:03:52;10.79;82.01
65584;DHT22;62116;43.582;1.470;2023-04-03T04:06:19;10.77;81.94
65584;DHT22;62116;43.582;1.470;2023-04-03T04:08:44;10.76;82.04
65584;DHT22;62116;43.582;1.470;2023-04-03T04:11:10;10.76;82.30
65584;DHT22;62116;43.582;1.470;2023-04-03T04:13:35;10.73;82.13
65584;DHT22;62116;43.582;1.470;2023-04-03T04:16:01;10.75;82.10
65584;DHT22;62116;43.582;1.470;2023-04-03T04:18:26;10.75;82.31
65584;DHT22;62116;43.582;1.470;2023-04-03T04:20:52;10.76;82.31
65584;DHT22;62116;43.582;1.470;2023-04-03T04:23:18;10.79;82.21
65584;DHT22;62116;43.582;1.470;2023-04-03T04:25:45;10.76;82.31
65584;DHT22;62116;43.582;1.470;2023-04-03T04:28:11;10.76;82.15
65584;DHT22;62116;43.582;1.470;2023-04-03T04:30:36;10.75;81.94
65584;DHT22;62116;43.582;1.470;2023-04-03T04:33:02;10.80;81.83
65584;DHT22;62116;43.582;1.470;2023-04-03T04:35:27;10.80;81.77
65584;DHT22;62116;43.582;1.470;2023-04-03T04:37:53;10.77;81.82
65584;DHT22;62116;43.582;1.470;2023-04-03T04:40:18;10.75;82.05
65584;DHT22;62116;43.582;1.470;2023-04-03T04:42:44;10.77;81.98
65584;DHT22;62116;43.582;1.470;2023-04-03T04:45:10;10.75;81.88
65584;DHT22;62116;43.582;1.470;2023-04-03T04:47:35;10.76;81.80
65584;DHT22;62116;43.582;1.470;2023-04-03T04:50:00;10.79;81.66
65584;DHT22;62116;43.582;1.470;2023-04-03T04:52:26;10.75;81.96
65584;DHT22;62116;43.582;1.470;2023-04-03T04:54:51;10.70;81.97
65584;DHT22;62116;43.582;1.470;2023-04-03T04:57:17;10.69;82.21
65584;DHT22;62116;43.582;1.470;2023-04-03T04:59:42;10.73;82.18
65584;DHT22;62116;43.582;1.470;2023-04-03T05:02:08;10.76;82.06
65584;DHT22;62116;43.582;1.470;2023-04-03T05:04:33;10.75;81.95
65584;DHT22;62116;43.582;1.470;2023-04-03T05:06:58;10.72;81.92
65584;DHT22;62116;43.582;1.470;2023-04-03T05:09:24;10.75;82.11
65584;DHT22;62116;43.582;1.470;2023-04-03T05:11:50;10.69;82.30
65584;DHT22;62116;43.582;1.470;2023-04-03T05:14:15;10.67;82.49
65584;DHT22;62116;43.582;1.470;2023-04-03T05:16:41;10.70;82.43
65584;DHT22;62116;43.582;1.470;2023-04-03T05:19:06;10.73;82.59
65584;DHT22;62116;43.582;1.470;2023-04-03T05:21:32;10.72;82.47
65584;DHT22;62116;43.582;1.470;2023-04-03T05:24:00;10.72;82.33
65584;DHT22;62116;43.582;1.470;2023-04-03T05:26:29;10.70;82.25
65584;DHT22;62116;43.582;1.470;2023-04-03T05:28:55;10.70;82.22
65584;DHT22;62116;43.582;1.470;2023-04-03T05:31:20;10.70;81.97
65584;DHT22;62116;43.582;1.470;2023-04-03T05:33:45;10.70;81.99
65584;DHT22;62116;43.582;1.470;2023-04-03T05:36:12;10.65;82.15
65584;DHT22;62116;43.582;1.470;2023-04-03T05:38:38;10.66;82.31
65584;DHT22;62116;43.582;1.470;2023-04-03T05:41:04;10.66;82.25
65584;DHT22;62116;43.582;1.470;2023-04-03T05:43:29;10.65;82.32
65584;DHT22;62116;43.582;1.470;2023-04-03T05:45:54;10.66;82.47
65584;DHT22;62116;43.582;1.470;2023-04-03T05:48:20;10.70;82.41
65584;DHT22;62116;43.582;1.470;2023-04-03T05:50:46;10.67;82.64
65584;DHT22;62116;43.582;1.470;2023-04-03T05:53:22;10.72;82.69
65584;DHT22;62116;43.582;1.470;2023-04-03T05:55:49;10.76;82.60
65584;DHT22;62116;43.582;1.470;2023-04-03T05:58:14;10.80;82.17
65584;DHT22;62116;43.582;1.470;2023-04-03T06:00:39;10.77;81.92
65584;DHT22;62116;43.582;1.470;2023-04-03T06:03:05;10.77;81.98
65584;DHT22;62116;43.582;1.470;2023-04-03T06:05:31;10.80;82.20
65584;DHT22;62116;43.582;1.470;2023-04-03T06:07:57;10.81;82.12
65584;DHT22;62116;43.582;1.470;2023-04-03T06:10:23;10.83;82.02
65584;DHT22;62116;43.582;1.470;2023-04-03T06:12:48;10.79;81.71
65584;DHT22;62116;43.582;1.470;2023-04-03T06:15:13;10.80;81.86
65584;DHT22;62116;43.582;1.470;2023-04-03T06:17:40;10.79;81.57
65584;DHT22;62116;43.582;1.470;2023-04-03T06:20:06;10.77;81.87
65584;DHT22;62116;43.582;1.470;2023-04-03T06:22:32;10.83;81.44
65584;DHT22;62116;43.582;1.470;2023-04-03T06:24:58;10.77;81.46
65584;DHT22;62116;43.582;1.470;2023-04-03T06:27:23;10.79;81.64
65584;DHT22;62116;43.582;1.470;2023-04-03T06:29:49;10.80;81.62
65584;DHT22;62116;43.582;1.470;2023-04-03T06:32:15;10.83;81.56
65584;DHT22;62116;43.582;1.470;2023-04-03T06:34:40;10.83;81.40
65584;DHT22;62116;43.582;1.470;2023-04-03T06:37:10;10.83;81.08
65584;DHT22;62116;43.582;1.470;2023-04-03T06:39:38;10.81;81.19
65584;DHT22;62116;43.582;1.470;2023-04-03T06:42:04;10.77;81.23
65584;DHT22;62116;43.582;1.470;2023-04-03T06:44:29;10.80;81.38
65584;DHT22;62116;43.582;1.470;2023-04-03T06:46:54;10.80;81.51
65584;DHT22;62116;43.582;1.470;2023-04-03T06:49:20;10.79;81.32
65584;DHT22;62116;43.582;1.470;2023-04-03T06:51:45;10.80;81.11
65584;DHT22;62116;43.582;1.470;2023-04-03T06:54:11;10.81;81.19
65584;DHT22;62116;43.582;1.470;2023-04-03T06:56:36;10.81;81.00
65584;DHT22;62116;43.582;1.470;2023-04-03T06:59:02;10.83;81.05
65584;DHT22;62116;43.582;1.470;2023-04-03T07:01:29;10.86;80.85
65584;DHT22;62116;43.582;1.470;2023-04-03T07:03:55;10.87;80.84
65584;DHT22;62116;43.582;1.470;2023-04-03T07:06:21;10.89;80.86
65584;DHT22;62116;43.582;1.470;2023-04-03T07:08:47;10.89;80.71
65584;DHT22;62116;43.582;1.470;2023-04-03T07:11:16;10.90;80.49
65584;DHT22;62116;43.582;1.470;2023-04-03T07:13:42;10.89;80.49
65584;DHT22;62116;43.582;1.470;2023-04-03T07:16:08;10.86;80.74
65584;DHT22;62116;43.582;1.470;2023-04-03T07:18:34;10.89;80.59
65584;DHT22;62116;43.582;1.470;2023-04-03T07:21:00;10.95;80.78
65584;DHT22;62116;43.582;1.470;2023-04-03T07:23:26;10.96;80.84
65584;DHT22;62116;43.582;1.470;2023-04-03T07:25:52;10.96;80.73
65584;DHT22;62116;43.582;1.470;2023-04-03T07:28:19;11.00;80.71
65584;DHT22;62116;43.582;1.470;2023-04-03T07:30:47;11.00;80.44
65584;DHT22;62116;43.582;1.470;2023-04-03T07:33:14;10.99;80.31
65584;DHT22;62116;43.582;1.470;2023-04-03T07:35:40;11.00;80.31
65584;DHT22;62116;43.582;1.470;2023-04-03T07:38:06;11.00;80.32
65584;DHT22;62116;43.582;1.470;2023-04-03T07:40:32;11.03;80.12
65584;DHT22;62116;43.582;1.470;2023-04-03T07:42:57;11.06;80.00
65584;DHT22;62116;43.582;1.470;2023-04-03T07:45:24;11.04;80.03
65584;DHT22;62116;43.582;1.470;2023-04-03T07:47:49;11.06;80.10
65584;DHT22;62116;43.582;1.470;2023-04-03T07:50:15;11.07;80.19
65584;DHT22;62116;43.582;1.470;2023-04-03T07:52:41;11.06;79.88
65584;DHT22;62116;43.582;1.470;2023-04-03T07:55:07;11.09;79.87
65584;DHT22;62116;43.582;1.470;2023-04-03T07:57:32;11.10;79.44
65584;DHT22;62116;43.582;1.470;2023-04-03T07:59:58;11.16;79.20
65584;DHT22;62116;43.582;1.470;2023-04-03T08:02:23;11.16;79.08
65584;DHT22;62116;43.582;1.470;2023-04-03T08:04:49;11.19;79.10
65584;DHT22;62116;43.582;1.470;2023-04-03T08:07:14;11.23;79.16
65584;DHT22;62116;43.582;1.470;2023-04-03T08:09:40;11.17;78.80
65584;DHT22;62116;43.582;1.470;2023-04-03T08:12:05;11.23;78.70
65584;DHT22;62116;43.582;1.470;2023-04-03T08:14:33;11.26;78.62
65584;DHT22;62116;43.582;1.470;2023-04-03T08:17:02;11.27;78.79
65584;DHT22;62116;43.582;1.470;2023-04-03T08:19:29;11.30;78.61
65584;DHT22;62116;43.582;1.470;2023-04-03T08:21:55;11.31;78.17
65584;DHT22;62116;43.582;1.470;2023-04-03T08:24:20;11.40;78.36
65584;DHT22;62116;43.582;1.470;2023-04-03T08:26:46;11.40;78.29
65584;DHT22;62116;43.582;1.470;2023-04-03T08:29:11;11.50;78.29
65584;DHT22;62116;43.582;1.470;2023-04-03T08:31:37;11.54;77.83
65584;DHT22;62116;43.582;1.470;2023-04-03T08:34:03;11.61;77.24
65584;DHT22;62116;43.582;1.470;2023-04-03T08:36:30;11.79;76.76
65584;DHT22;62116;43.582;1.470;2023-04-03T08:38:56;11.95;76.32
65584;DHT22;62116;43.582;1.470;2023-04-03T08:41:32;12.02;76.40
65584;DHT22;62116;43.582;1.470;2023-04-03T08:44:13;12.15;76.33
65584;DHT22;62116;43.582;1.470;2023-04-03T08:49:27;12.50;75.08
65584;DHT22;62116;43.582;1.470;2023-04-03T08:51:56;12.70;74.30
65584;DHT22;62116;43.582;1.470;2023-04-03T08:54:33;13.08;73.71
65584;DHT22;62116;43.582;1.470;2023-04-03T08:57:02;13.15;72.04
65584;DHT22;62116;43.582;1.470;2023-04-03T08:59:30;13.41;70.75
65584;DHT22;62116;43.582;1.470;2023-04-03T09:01:59;13.98;69.40
65584;DHT22;62116;43.582;1.470;2023-04-03T09:04:27;14.12;69.33
65584;DHT22;62116;43.582;1.470;2023-04-03T09:06:58;14.25;69.23
65584;DHT22;62116;43.582;1.470;2023-04-03T09:09:41;14.47;68.47
65584;DHT22;62116;43.582;1.470;2023-04-03T09:22:46;14.96;62.55
65584;DHT22;62116;43.582;1.470;2023-04-03T09:25:18;15.18;61.81
65584;DHT22;62116;43.582;1.470;2023-04-03T09:27:45;15.05;61.75
65584;DHT22;62116;43.582;1.470;2023-04-03T09:30:22;14.94;62.78
65584;DHT22;62116;43.582;1.470;2023-04-03T09:32:51;14.96;63.33
65584;DHT22;62116;43.582;1.470;2023-04-03T09:35:19;15.01;63.57
65584;DHT22;62116;43.582;1.470;2023-04-03T09:37:48;15.23;63.36
65584;DHT22;62116;43.582;1.470;2023-04-03T09:40:35;15.23;62.31
65584;DHT22;62116;43.582;1.470;2023-04-03T09:43:20;15.14;62.10
65584;DHT22;62116;43.582;1.470;2023-04-03T09:45:47;15.05;61.38
65584;DHT22;62116;43.582;1.470;2023-04-03T09:50:59;14.73;62.06
65584;DHT22;62116;43.582;1.470;2023-04-03T09:53:38;14.66;63.00
65584;DHT22;62116;43.582;1.470;2023-04-03T09:56:25;14.56;63.51
65584;DHT22;62116;43.582;1.470;2023-04-03T10:01:34;14.46;63.20
65584;DHT22;62116;43.582;1.470;2023-04-03T10:04:06;14.53;62.98
65584;DHT22;62116;43.582;1.470;2023-04-03T10:06:34;14.64;63.40
65584;DHT22;62116;43.582;1.470;2023-04-03T10:12:09;14.73;61.15
65584;DHT22;62116;43.582;1.470;2023-04-03T10:14:39;14.81;61.13
65584;DHT22;62116;43.582;1.470;2023-04-03T10:19:45;14.97;62.75
65584;DHT22;62116;43.582;1.470;2023-04-03T10:28:08;15.66;59.59
65584;DHT22;62116;43.582;1.470;2023-04-03T10:33:39;15.54;57.50
65584;DHT22;62116;43.582;1.470;2023-04-03T10:36:37;15.57;57.75
65584;DHT22;62116;43.582;1.470;2023-04-03T10:39:08;15.68;57.41
65584;DHT22;62116;43.582;1.470;2023-04-03T10:42:04;15.54;57.28
65584;DHT22;62116;43.582;1.470;2023-04-03T10:47:21;15.34;57.39
65584;DHT22;62116;43.582;1.470;2023-04-03T10:49:56;15.27;57.86
65584;DHT22;62116;43.582;1.470;2023-04-03T10:52:40;15.23;57.69
65584;DHT22;62116;43.582;1.470;2023-04-03T10:57:50;15.11;59.27
65584;DHT22;62116;43.582;1.470;2023-04-03T11:00:18;15.00;57.88
65584;DHT22;62116;43.582;1.470;2023-04-03T11:03:03;14.87;58.80
65584;DHT22;62116;43.582;1.470;2023-04-03T11:05:43;14.79;58.30
65584;DHT22;62116;43.582;1.470;2023-04-03T11:10:58;14.50;56.81
65584;DHT22;62116;43.582;1.470;2023-04-03T11:13:40;14.59;58.42
65584;DHT22;62116;43.582;1.470;2023-04-03T11:16:08;14.60;58.34
65584;DHT22;62116;43.582;1.470;2023-04-03T11:18:44;14.59;58.97
65584;DHT22;62116;43.582;1.470;2023-04-03T11:21:26;14.56;58.39
65584;DHT22;62116;43.582;1.470;2023-04-03T11:23:56;14.56;58.47
65584;DHT22;62116;43.582;1.470;2023-04-03T11:26:27;14.59;58.41
65584;DHT22;62116;43.582;1.470;2023-04-03T11:29:03;14.62;58.63
65584;DHT22;62116;43.582;1.470;2023-04-03T11:34:39;14.42;59.15
65584;DHT22;62116;43.582;1.470;2023-04-03T11:37:27;14.32;59.65
65584;DHT22;62116;43.582;1.470;2023-04-03T11:39:59;14.26;58.80
65584;DHT22;62116;43.582;1.470;2023-04-03T11:42:34;14.15;58.64
65584;DHT22;62116;43.582;1.470;2023-04-03T11:47:53;13.95;59.51
65584;DHT22;62116;43.582;1.470;2023-04-03T11:53:41;13.86;59.60
65584;DHT22;62116;43.582;1.470;2023-04-03T11:58:24;13.83;59.21
65584;DHT22;62116;43.582;1.470;2023-04-03T12:01:05;13.88;59.84
65584;DHT22;62116;43.582;1.470;2023-04-03T12:13:34;14.22;59.50
65584;DHT22;62116;43.582;1.470;2023-04-03T12:16:00;14.28;59.32
65584;DHT22;62116;43.582;1.470;2023-04-03T12:18:48;14.32;59.44
65584;DHT22;62116;43.582;1.470;2023-04-03T12:35:28;14.49;57.70
65584;DHT22;62116;43.582;1.470;2023-04-03T12:41:19;14.53;59.07
65584;DHT22;62116;43.582;1.470;2023-04-03T12:44:09;14.56;59.02
65584;DHT22;62116;43.582;1.470;2023-04-03T12:46:43;14.60;59.55
65584;DHT22;62116;43.582;1.470;2023-04-03T12:49:33;14.63;58.81
65584;DHT22;62116;43.582;1.470;2023-04-03T12:52:04;14.57;58.03
65584;DHT22;62116;43.582;1.470;2023-04-03T12:54:38;14.60;58.93
65584;DHT22;62116;43.582;1.470;2023-04-03T12:59:43;14.63;58.65
65584;DHT22;62116;43.582;1.470;2023-04-03T13:04:46;14.59;59.86
65584;DHT22;62116;43.582;1.470;2023-04-03T13:07:26;14.56;59.08
65584;DHT22;62116;43.582;1.470;2023-04-03T13:09:58;14.55;58.92
65584;DHT22;62116;43.582;1.470;2023-04-03T13:12:25;14.55;59.16
65584;DHT22;62116;43.582;1.470;2023-04-03T13:14:59;14.52;59.05
65584;DHT22;62116;43.582;1.470;2023-04-03T13:17:25;14.56;59.39
65584;DHT22;62116;43.582;1.470;2023-04-03T13:19:53;14.59;57.38
65584;DHT22;62116;43.582;1.470;2023-04-03T13:24:54;14.57;57.80
65584;DHT22;62116;43.582;1.470;2023-04-03T13:27:20;14.59;57.46
65584;DHT22;62116;43.582;1.470;2023-04-03T13:29:51;14.62;57.63
65584;DHT22;62116;43.582;1.470;2023-04-03T13:32:23;14.64;57.51
65584;DHT22;62116;43.582;1.470;2023-04-03T13:34:49;14.72;57.69
65584;DHT22;62116;43.582;1.470;2023-04-03T13:37:33;14.76;57.54
65584;DHT22;62116;43.582;1.470;2023-04-03T13:40:03;14.84;57.34
65584;DHT22;62116;43.582;1.470;2023-04-03T13:42:38;14.81;57.38
65584;DHT22;62116;43.582;1.470;2023-04-03T13:47:49;14.90;56.84
65584;DHT22;62116;43.582;1.470;2023-04-03T13:50:17;14.87;56.84
65584;DHT22;62116;43.582;1.470;2023-04-03T13:52:54;14.93;57.32
65584;DHT22;62116;43.582;1.470;2023-04-03T13:55:26;14.96;57.58
65584;DHT22;62116;43.582;1.470;2023-04-03T14:00:48;15.01;56.35
65584;DHT22;62116;43.582;1.470;2023-04-03T14:03:29;15.01;56.72
65584;DHT22;62116;43.582;1.470;2023-04-03T14:05:55;15.03;57.30
65584;DHT22;62116;43.582;1.470;2023-04-03T14:08:21;15.04;56.94
65584;DHT22;62116;43.582;1.470;2023-04-03T14:10:47;15.11;57.40
65584;DHT22;62116;43.582;1.470;2023-04-03T14:13:15;15.12;57.28
65584;DHT22;62116;43.582;1.470;2023-04-03T14:15:41;15.10;57.19
65584;DHT22;62116;43.582;1.470;2023-04-03T14:18:12;15.10;57.18
65584;DHT22;62116;43.582;1.470;2023-04-03T14:20:37;15.10;57.96
65584;DHT22;62116;43.582;1.470;2023-04-03T14:23:03;15.08;58.17
65584;DHT22;62116;43.582;1.470;2023-04-03T14:25:29;15.00;58.16
65584;DHT22;62116;43.582;1.470;2023-04-03T14:27:54;15.00;57.83
65584;DHT22;62116;43.582;1.470;2023-04-03T14:30:28;14.97;57.54
65584;DHT22;62116;43.582;1.470;2023-04-03T14:32:55;14.97;56.97
65584;DHT22;62116;43.582;1.470;2023-04-03T14:35:20;14.91;57.25
65584;DHT22;62116;43.582;1.470;2023-04-03T14:37:47;14.94;57.54
65584;DHT22;62116;43.582;1.470;2023-04-03T14:40:17;14.94;57.29
65584;DHT22;62116;43.582;1.470;2023-04-03T14:42:43;14.91;57.26
65584;DHT22;62116;43.582;1.470;2023-04-03T14:45:11;14.91;57.65
65584;DHT22;62116;43.582;1.470;2023-04-03T14:47:50;14.91;57.65
65584;DHT22;62116;43.582;1.470;2023-04-03T14:50:22;14.88;58.21
65584;DHT22;62116;43.582;1.470;2023-04-03T14:52:50;14.88;57.91
65584;DHT22;62116;43.582;1.470;2023-04-03T14:55:19;14.84;57.89
65584;DHT22;62116;43.582;1.470;2023-04-03T14:57:45;14.84;58.38
65584;DHT22;62116;43.582;1.470;2023-04-03T15:00:14;14.86;58.94
65584;DHT22;62116;43.582;1.470;2023-04-03T15:02:39;14.87;59.24
65584;DHT22;62116;43.582;1.470;2023-04-03T15:05:08;14.88;59.29
65584;DHT22;62116;43.582;1.470;2023-04-03T15:07:39;14.88;58.84
65584;DHT22;62116;43.582;1.470;2023-04-03T15:12:40;14.86;57.75
65584;DHT22;62116;43.582;1.470;2023-04-03T15:15:06;14.88;58.51
65584;DHT22;62116;43.582;1.470;2023-04-03T15:17:32;14.90;58.04
65584;DHT22;62116;43.582;1.470;2023-04-03T15:19:58;14.96;58.41
65584;DHT22;62116;43.582;1.470;2023-04-03T15:22:23;14.91;57.94
65584;DHT22;62116;43.582;1.470;2023-04-03T15:24:49;14.94;58.07
65584;DHT22;62116;43.582;1.470;2023-04-03T15:27:15;14.93;58.14
65584;DHT22;62116;43.582;1.470;2023-04-03T15:29:42;14.97;58.39
65584;DHT22;62116;43.582;1.470;2023-04-03T15:32:08;14.97;59.13
65584;DHT22;62116;43.582;1.470;2023-04-03T15:34:34;15.00;58.66
65584;DHT22;62116;43.582;1.470;2023-04-03T15:37:00;14.98;57.93
65584;DHT22;62116;43.582;1.470;2023-04-03T15:39:26;14.97;58.18
65584;DHT22;62116;43.582;1.470;2023-04-03T15:41:51;14.94;58.52
65584;DHT22;62116;43.582;1.470;2023-04-03T15:44:17;14.91;57.57
65584;DHT22;62116;43.582;1.470;2023-04-03T15:46:44;14.96;57.31
65584;DHT22;62116;43.582;1.470;2023-04-03T15:49:10;14.94;57.18
65584;DHT22;62116;43.582;1.470;2023-04-03T15:51:36;14.90;57.00
65584;DHT22;62116;43.582;1.470;2023-04-03T15:54:01;14.90;57.14
65584;DHT22;62116;43.582;1.470;2023-04-03T15:56:27;14.93;57.38
65584;DHT22;62116;43.582;1.470;2023-04-03T15:58:52;14.94;58.18
65584;DHT22;62116;43.582;1.470;2023-04-03T16:01:18;14.97;57.92
65584;DHT22;62116;43.582;1.470;2023-04-03T16:03:43;14.93;57.99
65584;DHT22;62116;43.582;1.470;2023-04-03T16:06:12;14.90;57.53
65584;DHT22;62116;43.582;1.470;2023-04-03T16:08:38;14.90;58.60
65584;DHT22;62116;43.582;1.470;2023-04-03T16:11:03;14.88;58.57
65584;DHT22;62116;43.582;1.470;2023-04-03T16:13:29;14.81;58.52
65584;DHT22;62116;43.582;1.470;2023-04-03T16:15:54;14.83;58.80
65584;DHT22;62116;43.582;1.470;2023-04-03T16:18:20;14.77;59.60
65584;DHT22;62116;43.582;1.470;2023-04-03T16:20:46;14.77;59.15
65584;DHT22;62116;43.582;1.470;2023-04-03T16:23:12;14.72;58.12
65584;DHT22;62116;43.582;1.470;2023-04-03T16:25:37;14.69;58.32
65584;DHT22;62116;43.582;1.470;2023-04-03T16:28:03;14.69;58.48
65584;DHT22;62116;43.582;1.470;2023-04-03T16:30:28;14.63;58.40
65584;DHT22;62116;43.582;1.470;2023-04-03T16:32:54;14.63;58.26
65584;DHT22;62116;43.582;1.470;2023-04-03T16:35:20;14.62;58.78
65584;DHT22;62116;43.582;1.470;2023-04-03T16:37:46;14.60;58.03
65584;DHT22;62116;43.582;1.470;2023-04-03T16:40:12;14.63;58.67
65584;DHT22;62116;43.582;1.470;2023-04-03T16:42:37;14.62;57.70
65584;DHT22;62116;43.582;1.470;2023-04-03T16:45:04;14.60;57.62
65584;DHT22;62116;43.582;1.470;2023-04-03T16:47:30;14.57;57.69
65584;DHT22;62116;43.582;1.470;2023-04-03T16:49:56;14.59;57.57
65584;DHT22;62116;43.582;1.470;2023-04-03T16:52:22;14.57;57.53
65584;DHT22;62116;43.582;1.470;2023-04-03T16:54:47;14.56;57.78
65584;DHT22;62116;43.582;1.470;2023-04-03T16:57:13;14.55;58.05
65584;DHT22;62116;43.582;1.470;2023-04-03T16:59:38;14.49;57.81
65584;DHT22;62116;43.582;1.470;2023-04-03T17:02:03;14.52;58.13
65584;DHT22;62116;43.582;1.470;2023-04-03T17:04:29;14.47;58.71
65584;DHT22;62116;43.582;1.470;2023-04-03T17:06:55;14.47;58.15
65584;DHT22;62116;43.582;1.470;2023-04-03T17:09:20;14.46;58.35
65584;DHT22;62116;43.582;1.470;2023-04-03T17:11:46;14.44;58.51
65584;DHT22;62116;43.582;1.470;2023-04-03T17:14:12;14.42;59.10
65584;DHT22;62116;43.582;1.470;2023-04-03T17:16:37;14.37;59.13